createdAt,value
2023-09-29T00:00:59.846Z,19.42
2023-09-29T00:06:01.757Z,19.37
2023-09-29T00:11:03.594Z,19.35
2023-09-29T00:16:05.561Z,19.31
2023-09-29T00:21:07.379Z,19.27
2023-09-29T00:26:09.316Z,19.20
2023-09-29T00:31:11.209Z,19.13
2023-09-29T00:36:12.973Z,19.06
2023-09-29T00:41:14.707Z,19.00
2023-09-29T00:46:16.642Z,18.92
2023-09-29T00:51:18.538Z,18.84
2023-09-29T00:56:20.283Z,18.76
2023-09-29T01:01:23.545Z,18.68
2023-09-29T01:06:25.270Z,18.64
2023-09-29T01:11:26.974Z,18.61
2023-09-29T01:16:28.728Z,18.58
2023-09-29T01:21:31.179Z,18.56
2023-09-29T01:26:33.014Z,18.53
2023-09-29T01:31:34.779Z,18.47
2023-09-29T01:36:36.693Z,18.39
2023-09-29T01:41:38.485Z,18.34
2023-09-29T01:46:40.410Z,18.28
2023-09-29T01:51:42.488Z,18.26
2023-09-29T01:56:44.296Z,18.24
2023-09-29T02:01:46.258Z,18.21
2023-09-29T02:06:47.882Z,18.21
2023-09-29T02:11:49.737Z,18.22
2023-09-29T02:16:51.775Z,18.23
2023-09-29T02:21:53.647Z,18.22
2023-09-29T02:26:55.438Z,18.20
2023-09-29T02:31:57.513Z,18.18
2023-09-29T02:36:59.262Z,18.12
2023-09-29T02:42:01.298Z,18.08
2023-09-29T02:47:03.083Z,18.07
2023-09-29T02:52:04.982Z,18.03
2023-09-29T02:57:06.701Z,18.01
2023-09-29T03:02:08.618Z,17.97
2023-09-29T03:07:10.982Z,17.93
2023-09-29T03:12:12.757Z,17.91
2023-09-29T03:17:14.393Z,17.91
2023-09-29T03:22:16.186Z,17.88
2023-09-29T03:27:17.809Z,17.85
2023-09-29T03:32:19.736Z,17.82
2023-09-29T03:37:22.126Z,17.78
2023-09-29T03:42:23.937Z,17.75
2023-09-29T03:47:25.934Z,17.72
2023-09-29T03:52:27.683Z,17.69
2023-09-29T03:57:29.373Z,17.68
2023-09-29T04:02:31.131Z,17.65
2023-09-29T04:07:33.189Z,17.64
2023-09-29T04:12:35.069Z,17.64
2023-09-29T04:17:36.864Z,17.62
2023-09-29T04:22:38.826Z,17.62
2023-09-29T04:27:41.337Z,17.60
2023-09-29T04:32:43.450Z,17.61
2023-09-29T04:37:45.739Z,17.63
2023-09-29T04:42:47.676Z,17.65
2023-09-29T04:47:49.476Z,17.66
2023-09-29T04:52:51.322Z,17.67
2023-09-29T04:57:53.117Z,17.68
2023-09-29T05:02:55.009Z,17.70
2023-09-29T05:07:56.788Z,17.74
2023-09-29T05:12:58.558Z,17.82
2023-09-29T05:18:00.411Z,17.92
2023-09-29T05:23:02.404Z,18.08
2023-09-29T05:28:04.816Z,18.25
2023-09-29T05:33:06.642Z,18.43
2023-09-29T05:38:08.638Z,18.64
2023-09-29T05:43:13.654Z,18.87
2023-09-29T05:48:17.217Z,19.10
2023-09-29T05:53:19.390Z,19.33
2023-09-29T05:58:21.277Z,19.56
2023-09-29T06:03:23.313Z,19.79
2023-09-29T06:08:26.963Z,20.01
2023-09-29T06:13:32.667Z,20.24
2023-09-29T06:18:34.708Z,20.49
2023-09-29T06:23:36.743Z,20.72
2023-09-29T06:28:38.494Z,20.96
2023-09-29T06:33:40.278Z,21.20
2023-09-29T06:38:42.074Z,21.44
2023-09-29T06:43:43.930Z,21.65
2023-09-29T06:48:45.921Z,21.87
2023-09-29T06:53:49.039Z,22.02
2023-09-29T06:58:52.512Z,22.04
2023-09-29T07:03:55.378Z,21.93
2023-09-29T07:08:57.713Z,22.00
2023-09-29T07:13:59.704Z,22.41
2023-09-29T07:19:01.529Z,22.84
2023-09-29T07:24:03.600Z,23.03
2023-09-29T07:29:05.484Z,23.24
2023-09-29T07:34:07.405Z,23.54
2023-09-29T07:39:09.309Z,23.77
2023-09-29T07:44:11.264Z,24.00
2023-09-29T07:49:13.245Z,24.26
2023-09-29T07:54:14.972Z,24.50
2023-09-29T07:59:17.306Z,24.73
2023-09-29T08:04:19.678Z,24.94
2023-09-29T08:09:21.609Z,25.21
2023-09-29T08:14:23.592Z,25.48
2023-09-29T08:19:25.333Z,25.71
2023-09-29T08:24:27.313Z,25.85
2023-09-29T08:29:29.223Z,25.97
2023-09-29T08:34:31.178Z,25.77
2023-09-29T08:39:33.074Z,25.71
2023-09-29T08:44:35.238Z,25.71
2023-09-29T08:49:49.734Z,25.97
2023-09-29T08:54:52.616Z,26.27
2023-09-29T08:59:55.133Z,26.56
2023-09-29T09:04:57.189Z,26.85
2023-09-29T09:09:58.825Z,27.06
2023-09-29T09:15:00.632Z,27.19
2023-09-29T09:20:02.926Z,27.29
2023-09-29T09:25:05.232Z,27.42
2023-09-29T09:30:07.667Z,27.64
2023-09-29T09:35:09.599Z,27.85
2023-09-29T09:40:11.961Z,28.04
2023-09-29T09:45:13.847Z,28.23
2023-09-29T09:50:15.868Z,28.34
2023-09-29T09:55:17.814Z,28.54
2023-09-29T10:00:19.527Z,28.79
2023-09-29T10:05:22.716Z,28.94
2023-09-29T10:10:41.160Z,29.08
2023-09-29T10:15:43.453Z,29.27
2023-09-29T10:20:46.391Z,29.43
2023-09-29T10:25:58.585Z,29.67
2023-09-29T10:31:13.059Z,29.92
2023-09-29T10:36:14.868Z,30.09
2023-09-29T10:41:31.551Z,30.38
2023-09-29T10:46:35.777Z,30.57
2023-09-29T10:51:37.764Z,30.58
2023-09-29T10:56:39.828Z,30.79
2023-09-29T11:01:41.712Z,30.94
2023-09-29T11:06:49.438Z,31.30
2023-09-29T11:11:51.186Z,31.81
2023-09-29T11:16:59.386Z,32.35
2023-09-29T11:22:01.423Z,32.63
2023-09-29T11:27:03.109Z,33.30
2023-09-29T11:32:05.140Z,33.99
2023-09-29T11:37:07.064Z,34.68
2023-09-29T11:42:08.723Z,35.16
2023-09-29T11:47:10.556Z,35.54
2023-09-29T11:52:12.387Z,35.96
2023-09-29T11:57:14.084Z,36.37
2023-09-29T12:02:15.939Z,36.91
2023-09-29T12:07:17.625Z,37.37
2023-09-29T12:12:19.534Z,37.63
2023-09-29T12:17:21.477Z,38.01
2023-09-29T12:22:23.347Z,38.17
2023-09-29T12:27:25.462Z,38.23
2023-09-29T12:32:27.443Z,38.24
2023-09-29T12:37:29.474Z,38.21
2023-09-29T12:42:31.918Z,38.12
2023-09-29T12:47:33.783Z,37.65
2023-09-29T12:52:36.334Z,36.64
2023-09-29T12:57:38.316Z,35.57
2023-09-29T13:02:40.444Z,34.27
2023-09-29T13:07:42.251Z,33.33
2023-09-29T13:12:46.382Z,32.61
2023-09-29T13:17:50.130Z,32.24
2023-09-29T13:22:52.086Z,32.25
2023-09-29T13:27:54.022Z,31.66
2023-09-29T13:32:56.001Z,31.02
2023-09-29T13:37:57.976Z,30.58
2023-09-29T13:42:59.889Z,30.18
2023-09-29T13:48:01.798Z,29.82
2023-09-29T13:53:03.814Z,29.60
2023-09-29T13:58:05.692Z,29.39
2023-09-29T14:03:07.665Z,29.16
2023-09-29T14:08:09.705Z,28.92
2023-09-29T14:13:11.648Z,28.69
2023-09-29T14:18:13.619Z,28.56
2023-09-29T14:23:15.713Z,28.43
2023-09-29T14:28:17.575Z,28.31
2023-09-29T14:33:19.351Z,28.24
2023-09-29T14:38:22.356Z,28.12
2023-09-29T14:43:24.167Z,27.95
2023-09-29T14:48:26.177Z,27.78
2023-09-29T14:53:28.298Z,27.65
2023-09-29T14:58:30.133Z,27.53
2023-09-29T15:03:32.019Z,27.42
2023-09-29T15:08:35.063Z,27.30
2023-09-29T15:13:36.842Z,27.19
2023-09-29T15:18:38.791Z,27.07
2023-09-29T15:23:41.312Z,26.95
2023-09-29T15:28:44.260Z,26.84
2023-09-29T15:33:46.350Z,26.75
2023-09-29T15:38:48.232Z,26.66
2023-09-29T15:43:50.160Z,26.56
2023-09-29T15:48:52.083Z,26.46
2023-09-29T15:53:54.077Z,26.35
2023-09-29T15:58:55.834Z,26.23
2023-09-29T16:03:57.787Z,26.12
2023-09-29T16:08:59.958Z,26.02
2023-09-29T16:14:01.860Z,25.92
2023-09-29T16:19:03.822Z,25.84
2023-09-29T16:24:07.582Z,25.74
2023-09-29T16:29:09.401Z,25.60
2023-09-29T16:34:11.179Z,25.50
2023-09-29T16:39:13.193Z,25.40
2023-09-29T16:44:15.051Z,25.34
2023-09-29T16:49:16.822Z,25.27
2023-09-29T16:54:19.401Z,25.20
2023-09-29T16:59:23.350Z,25.12
2023-09-29T17:04:25.265Z,25.07
2023-09-29T17:09:27.383Z,25.02
2023-09-29T17:14:29.596Z,24.95
2023-09-29T17:19:31.492Z,24.88
2023-09-29T17:24:35.390Z,24.83
2023-09-29T17:29:37.180Z,24.77
2023-09-29T17:34:38.953Z,24.73
2023-09-29T17:39:40.726Z,24.68
2023-09-29T17:44:42.526Z,24.61
2023-09-29T17:49:44.330Z,24.54
2023-09-29T17:54:46.195Z,24.47
2023-09-29T17:59:48.259Z,24.41
2023-09-29T18:04:50.141Z,24.37
2023-09-29T18:09:52.613Z,24.31
2023-09-29T18:14:54.531Z,24.27
2023-09-29T18:19:56.440Z,24.23
2023-09-29T18:24:58.375Z,24.19
2023-09-29T18:30:00.317Z,24.12
2023-09-29T18:35:02.663Z,24.03
2023-09-29T18:40:05.349Z,23.98
2023-09-29T18:45:08.136Z,23.91
2023-09-29T18:50:10.112Z,23.86
2023-09-29T18:55:12.321Z,23.81
2023-09-29T19:00:14.647Z,23.74
2023-09-29T19:05:16.587Z,23.67
2023-09-29T19:10:18.552Z,23.59
2023-09-29T19:15:20.676Z,23.50
2023-09-29T19:20:22.608Z,23.41
2023-09-29T19:25:24.589Z,23.30
2023-09-29T19:30:26.721Z,23.19
2023-09-29T19:35:28.549Z,23.08
2023-09-29T19:40:30.244Z,22.97
2023-09-29T19:45:32.268Z,22.86
2023-09-29T19:50:34.416Z,22.75
2023-09-29T19:55:36.099Z,22.65
2023-09-29T20:00:38.015Z,22.58
2023-09-29T20:05:40.116Z,22.48
2023-09-29T20:10:43.494Z,22.41
2023-09-29T20:15:45.510Z,22.28
2023-09-29T20:20:47.701Z,22.20
2023-09-29T20:25:49.507Z,22.11
2023-09-29T20:30:51.168Z,22.04
2023-09-29T20:35:52.841Z,21.99
2023-09-29T20:40:54.702Z,21.96
2023-09-29T20:45:56.513Z,21.93
2023-09-29T20:50:58.375Z,21.89
2023-09-29T20:56:00.267Z,21.85
2023-09-29T21:01:02.160Z,21.81
2023-09-29T21:06:04.043Z,21.75
2023-09-29T21:11:05.962Z,21.71
2023-09-29T21:16:07.929Z,21.64
2023-09-29T21:21:09.832Z,21.57
2023-09-29T21:26:12.708Z,21.51
2023-09-29T21:31:15.136Z,21.46
2023-09-29T21:36:17.155Z,21.41
2023-09-29T21:41:19.067Z,21.33
2023-09-29T21:46:20.998Z,21.28
2023-09-29T21:51:22.855Z,21.24
2023-09-29T21:56:24.785Z,21.19
2023-09-29T22:01:26.543Z,21.14
2023-09-29T22:06:28.434Z,21.08
2023-09-29T22:11:30.344Z,20.99
2023-09-29T22:16:32.299Z,20.93
2023-09-29T22:21:34.283Z,20.86
2023-09-29T22:26:36.077Z,20.80
2023-09-29T22:31:37.896Z,20.76
2023-09-29T22:36:40.897Z,20.70
2023-09-29T22:41:42.742Z,20.64
2023-09-29T22:46:44.624Z,20.62
2023-09-29T22:51:48.255Z,20.59
2023-09-29T22:56:51.344Z,20.58
2023-09-29T23:01:53.167Z,20.56
2023-09-29T23:06:55.076Z,20.54
2023-09-29T23:11:56.979Z,20.51
2023-09-29T23:16:58.997Z,20.48
2023-09-29T23:22:00.838Z,20.43
2023-09-29T23:27:02.819Z,20.40
2023-09-29T23:32:05.314Z,20.38
2023-09-29T23:37:07.020Z,20.34
2023-09-29T23:42:08.893Z,20.31
2023-09-29T23:47:10.564Z,20.25
2023-09-29T23:52:12.402Z,20.22
2023-09-29T23:57:14.310Z,20.17
